createdAt,value
2023-02-27T00:00:05.113Z,3.85
2023-02-27T00:02:32.986Z,3.97
2023-02-27T00:05:00.825Z,4.38
2023-02-27T00:07:30.030Z,3.20
2023-02-27T00:09:57.781Z,4.57
2023-02-27T00:12:25.739Z,4.15
2023-02-27T00:14:53.525Z,5.35
2023-02-27T00:17:21.500Z,6.07
2023-02-27T00:19:49.280Z,3.73
2023-02-27T00:22:17.048Z,4.25
2023-02-27T00:24:46.197Z,3.85
2023-02-27T00:27:13.968Z,2.50
2023-02-27T00:29:41.863Z,5.65
2023-02-27T00:32:09.766Z,3.10
2023-02-27T00:34:37.633Z,3.15
2023-02-27T00:37:05.548Z,3.03
2023-02-27T00:39:33.481Z,3.13
2023-02-27T00:42:02.706Z,3.92
2023-02-27T00:44:30.498Z,5.43
2023-02-27T00:46:58.299Z,2.95
2023-02-27T00:49:26.455Z,2.55
2023-02-27T00:51:54.613Z,5.10
2023-02-27T00:54:22.413Z,3.80
2023-02-27T00:56:50.217Z,3.87
2023-02-27T00:59:19.631Z,4.35
2023-02-27T01:01:47.386Z,4.50
2023-02-27T01:04:15.266Z,5.45
2023-02-27T01:06:43.039Z,5.72
2023-02-27T01:09:10.798Z,4.27
2023-02-27T01:11:38.824Z,4.93
2023-02-27T01:14:06.854Z,3.42
2023-02-27T01:16:36.119Z,2.85
2023-02-27T01:19:04.284Z,4.90
2023-02-27T01:21:32.054Z,5.70
2023-02-27T01:24:00.247Z,4.57
2023-02-27T01:26:28.011Z,3.85
2023-02-27T01:28:55.798Z,3.67
2023-02-27T01:31:23.709Z,5.22
2023-02-27T01:33:52.935Z,4.90
2023-02-27T01:36:20.876Z,5.03
2023-02-27T01:38:48.657Z,4.43
2023-02-27T01:41:16.639Z,3.83
2023-02-27T01:43:59.368Z,5.47
2023-02-27T01:46:28.487Z,5.03
2023-02-27T01:49:01.441Z,4.53
2023-02-27T01:51:34.248Z,2.80
2023-02-27T01:54:05.208Z,5.80
2023-02-27T01:56:34.076Z,4.60
2023-02-27T01:59:06.387Z,5.77
2023-02-27T02:01:35.815Z,3.83
2023-02-27T02:04:12.566Z,4.07
2023-02-27T02:06:43.308Z,3.80
2023-02-27T02:09:12.419Z,3.35
2023-02-27T02:11:40.588Z,3.80
2023-02-27T02:14:10.869Z,3.08
2023-02-27T02:16:51.587Z,4.55
2023-02-27T02:19:55.336Z,4.57
2023-02-27T02:22:53.396Z,5.70
2023-02-27T02:25:55.759Z,2.33
2023-02-27T02:28:46.616Z,3.00
2023-02-27T02:31:35.295Z,3.47
2023-02-27T02:34:32.811Z,2.58
2023-02-27T02:37:40.565Z,2.88
2023-02-27T02:40:20.094Z,2.97
2023-02-27T02:42:56.619Z,3.60
2023-02-27T02:45:31.176Z,5.22
2023-02-27T02:48:08.703Z,4.10
2023-02-27T02:50:42.758Z,3.28
2023-02-27T02:53:17.156Z,2.30
2023-02-27T02:55:50.611Z,2.88
2023-02-27T03:01:27.560Z,2.80
2023-02-27T03:03:59.750Z,3.40
2023-02-27T03:06:32.562Z,4.03
2023-02-27T03:09:08.235Z,3.60
2023-02-27T03:11:42.160Z,4.07
2023-02-27T03:14:17.372Z,4.53
2023-02-27T03:16:49.966Z,5.88
2023-02-27T03:19:22.290Z,4.40
2023-02-27T03:21:55.790Z,3.72
2023-02-27T03:24:27.202Z,3.45
2023-02-27T03:27:02.944Z,4.28
2023-02-27T03:29:38.388Z,3.13
2023-02-27T03:32:12.318Z,2.90
2023-02-27T03:34:43.559Z,4.30
2023-02-27T03:37:23.157Z,3.22
2023-02-27T03:39:53.500Z,3.70
2023-02-27T03:42:31.038Z,2.95
2023-02-27T03:45:04.460Z,3.80
2023-02-27T03:47:34.131Z,8.13
2023-02-27T03:50:01.914Z,4.53
2023-02-27T03:52:31.284Z,2.90
2023-02-27T03:55:02.985Z,3.97
2023-02-27T03:57:33.007Z,3.80
2023-02-27T04:00:00.980Z,5.00
2023-02-27T04:02:29.597Z,5.57
2023-02-27T04:04:57.404Z,3.17
2023-02-27T04:07:35.026Z,4.15
2023-02-27T04:10:30.002Z,4.50
2023-02-27T04:13:28.594Z,7.80
2023-02-27T04:19:08.190Z,4.50
2023-02-27T04:21:43.038Z,4.78
2023-02-27T04:24:27.619Z,5.97
2023-02-27T04:26:59.961Z,3.45
2023-02-27T04:29:43.321Z,4.38
2023-02-27T04:32:16.944Z,3.58
2023-02-27T04:34:50.667Z,3.33
2023-02-27T04:37:25.842Z,2.93
2023-02-27T04:39:59.655Z,3.47
2023-02-27T04:42:32.253Z,3.63
2023-02-27T04:45:06.517Z,6.70
2023-02-27T04:47:39.591Z,4.30
2023-02-27T04:50:12.181Z,3.57
2023-02-27T04:52:44.740Z,5.85
2023-02-27T04:55:16.730Z,3.42
2023-02-27T04:57:50.281Z,3.78
2023-02-27T05:00:23.038Z,4.05
2023-02-27T05:02:54.371Z,4.90
2023-02-27T05:05:26.169Z,4.35
2023-02-27T05:07:58.997Z,3.33
2023-02-27T05:10:33.732Z,6.53
2023-02-27T05:13:06.355Z,3.65
2023-02-27T05:15:40.094Z,3.63
2023-02-27T05:18:11.110Z,4.00
2023-02-27T05:20:49.441Z,3.58
2023-02-27T05:23:23.170Z,3.45
2023-02-27T05:25:57.128Z,3.85
2023-02-27T05:28:30.466Z,3.03
2023-02-27T05:31:06.636Z,4.97
2023-02-27T05:33:39.878Z,9.77
2023-02-27T05:36:13.602Z,6.18
2023-02-27T05:38:45.800Z,3.88
2023-02-27T05:41:15.845Z,6.30
2023-02-27T05:43:48.245Z,4.45
2023-02-27T05:46:22.687Z,5.57
2023-02-27T05:48:55.915Z,3.53
2023-02-27T05:51:27.968Z,5.00
2023-02-27T05:54:01.211Z,4.90
2023-02-27T05:56:30.790Z,3.97
2023-02-27T05:59:03.876Z,4.15
2023-02-27T06:01:33.873Z,3.58
2023-02-27T06:04:01.744Z,4.60
2023-02-27T06:06:31.517Z,6.47
2023-02-27T06:08:59.306Z,5.97
2023-02-27T06:11:27.152Z,4.55
2023-02-27T06:13:54.921Z,3.25
2023-02-27T06:16:22.728Z,4.35
2023-02-27T06:18:51.927Z,9.03
2023-02-27T06:21:19.974Z,3.90
2023-02-27T06:23:47.775Z,3.05
2023-02-27T06:26:15.746Z,6.05
2023-02-27T06:28:43.597Z,9.65
2023-02-27T06:31:11.452Z,4.17
2023-02-27T06:33:39.251Z,3.33
2023-02-27T06:36:08.680Z,4.35
2023-02-27T06:38:37.159Z,3.60
2023-02-27T06:41:05.041Z,3.92
2023-02-27T06:43:34.757Z,5.70
2023-02-27T06:46:02.614Z,3.03
2023-02-27T06:48:30.398Z,6.85
2023-02-27T06:50:58.730Z,3.78
2023-02-27T06:53:27.905Z,3.33
2023-02-27T06:55:55.751Z,4.03
2023-02-27T06:58:24.765Z,4.80
2023-02-27T07:00:52.871Z,3.20
2023-02-27T07:03:20.628Z,4.72
2023-02-27T07:05:48.487Z,4.57
2023-02-27T07:08:17.562Z,4.43
2023-02-27T07:10:49.111Z,5.90
2023-02-27T07:13:19.561Z,4.88
2023-02-27T07:15:47.944Z,6.78
2023-02-27T07:18:16.728Z,4.00
2023-02-27T07:20:44.673Z,3.80
2023-02-27T07:23:12.613Z,4.13
2023-02-27T07:25:40.417Z,5.43
2023-02-27T07:28:11.894Z,6.10
2023-02-27T07:30:39.722Z,5.60
2023-02-27T07:33:07.525Z,4.37
2023-02-27T07:35:35.453Z,6.13
2023-02-27T07:38:04.493Z,7.57
2023-02-27T07:40:32.298Z,4.25
2023-02-27T07:43:00.105Z,6.30
2023-02-27T07:45:29.735Z,6.40
2023-02-27T07:47:57.537Z,5.85
2023-02-27T07:50:25.450Z,4.55
2023-02-27T07:52:53.478Z,5.18
2023-02-27T07:55:21.296Z,4.43
2023-02-27T07:57:49.079Z,7.67
2023-02-27T08:00:17.875Z,5.13
2023-02-27T08:02:47.130Z,4.95
2023-02-27T08:05:15.156Z,5.93
2023-02-27T08:07:42.981Z,6.75
2023-02-27T08:10:12.371Z,5.73
2023-02-27T08:12:40.657Z,4.72
2023-02-27T08:15:10.015Z,6.55
2023-02-27T08:17:37.831Z,5.65
2023-02-27T08:20:11.885Z,6.47
2023-02-27T08:22:39.705Z,5.27
2023-02-27T08:25:10.636Z,4.32
2023-02-27T08:27:38.680Z,5.78
2023-02-27T08:30:08.292Z,5.20
2023-02-27T08:32:36.351Z,5.63
2023-02-27T08:35:04.679Z,5.73
2023-02-27T08:37:33.857Z,5.18
2023-02-27T08:40:03.777Z,6.15
2023-02-27T08:42:31.985Z,4.90
2023-02-27T08:44:59.808Z,5.10
2023-02-27T08:47:27.603Z,7.10
2023-02-27T08:49:56.514Z,4.90
2023-02-27T08:52:25.103Z,4.22
2023-02-27T08:54:54.419Z,6.95
2023-02-27T08:57:22.202Z,5.13
2023-02-27T08:59:50.253Z,3.93
2023-02-27T09:02:18.417Z,5.43
2023-02-27T09:04:46.377Z,5.72
2023-02-27T09:07:14.228Z,5.07
2023-02-27T09:09:42.055Z,6.60
2023-02-27T09:12:11.230Z,5.57
2023-02-27T09:14:40.074Z,4.40
2023-02-27T09:17:08.299Z,5.65
2023-02-27T09:19:36.181Z,6.18
2023-02-27T09:22:04.106Z,4.88
2023-02-27T09:24:31.982Z,6.30
2023-02-27T09:26:59.829Z,4.93
2023-02-27T09:29:29.016Z,4.85
2023-02-27T09:31:58.061Z,5.38
2023-02-27T09:34:25.987Z,6.63
2023-02-27T09:36:53.880Z,5.80
2023-02-27T09:39:21.685Z,5.03
2023-02-27T09:41:56.651Z,4.93
2023-02-27T09:44:46.304Z,5.07
2023-02-27T09:47:22.220Z,6.40
2023-02-27T09:50:01.247Z,3.80
2023-02-27T09:52:29.916Z,4.18
2023-02-27T09:54:58.096Z,4.60
2023-02-27T09:57:41.070Z,4.28
2023-02-27T10:00:26.580Z,3.78
2023-02-27T10:03:00.733Z,3.50
2023-02-27T10:05:45.437Z,3.88
2023-02-27T10:08:24.288Z,3.47
2023-02-27T10:11:01.310Z,4.22
2023-02-27T10:13:47.328Z,5.03
2023-02-27T10:16:21.242Z,3.50
2023-02-27T10:18:55.774Z,5.07
2023-02-27T10:21:32.277Z,3.72
2023-02-27T10:24:07.778Z,4.93
2023-02-27T10:26:41.425Z,4.63
2023-02-27T10:29:18.993Z,4.47
2023-02-27T10:31:54.630Z,4.72
2023-02-27T10:34:23.951Z,3.97
2023-02-27T10:36:52.475Z,3.88
2023-02-27T10:39:22.177Z,4.82
2023-02-27T10:41:51.460Z,4.63
2023-02-27T10:44:20.887Z,4.03
2023-02-27T10:46:52.051Z,5.43
2023-02-27T10:49:22.439Z,3.50
2023-02-27T10:52:08.825Z,5.38
2023-02-27T10:54:37.156Z,3.90
2023-02-27T10:57:19.393Z,3.78
2023-02-27T10:59:53.626Z,4.60
2023-02-27T11:02:24.871Z,6.13
2023-02-27T11:04:54.901Z,6.47
2023-02-27T11:07:32.527Z,5.03
2023-02-27T11:10:03.504Z,4.25
2023-02-27T11:12:34.113Z,4.97
2023-02-27T11:15:05.026Z,5.65
2023-02-27T11:17:36.881Z,8.00
2023-02-27T11:20:07.180Z,5.60
2023-02-27T11:22:35.141Z,5.45
2023-02-27T11:25:21.645Z,6.80
2023-02-27T11:27:52.042Z,4.70
2023-02-27T11:30:27.972Z,5.18
2023-02-27T11:32:59.991Z,6.40
2023-02-27T11:35:31.181Z,5.47
2023-02-27T11:38:03.186Z,4.70
2023-02-27T11:40:33.715Z,5.53
2023-02-27T11:43:05.039Z,4.85
2023-02-27T11:46:09.291Z,4.40
2023-02-27T11:48:28.495Z,4.93
2023-02-27T11:51:34.698Z,5.78
2023-02-27T11:54:09.522Z,4.93
2023-02-27T11:56:39.929Z,4.95
2023-02-27T11:59:18.160Z,5.83
2023-02-27T12:01:52.273Z,5.40
2023-02-27T12:04:26.841Z,4.35
2023-02-27T12:07:00.435Z,4.30
2023-02-27T12:09:38.960Z,4.57
2023-02-27T12:12:15.124Z,4.50
2023-02-27T12:14:49.781Z,5.88
2023-02-27T12:17:24.794Z,5.05
2023-02-27T12:20:19.355Z,5.68
2023-02-27T12:22:49.754Z,6.45
2023-02-27T12:25:31.612Z,4.10
2023-02-27T12:28:04.972Z,5.30
2023-02-27T12:30:37.521Z,5.80
2023-02-27T12:33:17.214Z,6.88
2023-02-27T12:35:51.809Z,5.15
2023-02-27T12:38:20.864Z,4.03
2023-02-27T12:41:02.420Z,5.53
2023-02-27T12:43:39.185Z,4.45
2023-02-27T12:46:30.041Z,4.32
2023-02-27T12:49:15.251Z,3.97
2023-02-27T12:51:58.248Z,4.23
2023-02-27T12:54:37.842Z,4.53
2023-02-27T12:57:33.248Z,6.15
2023-02-27T13:00:12.642Z,4.55
2023-02-27T13:02:51.447Z,4.68
2023-02-27T13:05:39.416Z,4.97
2023-02-27T13:08:43.187Z,4.85
2023-02-27T13:11:22.888Z,6.75
2023-02-27T13:13:56.342Z,3.97
2023-02-27T13:16:29.696Z,4.00
2023-02-27T13:19:02.436Z,3.70
2023-02-27T13:21:37.791Z,3.75
2023-02-27T13:24:24.134Z,3.60
2023-02-27T13:26:58.345Z,3.63
2023-02-27T13:29:30.692Z,3.85
2023-02-27T13:32:06.449Z,2.90
2023-02-27T13:34:40.397Z,3.40
2023-02-27T13:37:11.637Z,3.83
2023-02-27T13:39:42.560Z,3.13
2023-02-27T13:42:46.278Z,5.47
2023-02-27T13:46:03.053Z,3.60
2023-02-27T13:48:49.344Z,3.78
2023-02-27T13:51:45.124Z,3.92
2023-02-27T13:54:23.227Z,3.03
2023-02-27T13:57:06.271Z,2.85
2023-02-27T13:59:36.508Z,3.10
2023-02-27T14:02:07.929Z,4.07
2023-02-27T14:04:40.172Z,4.50
2023-02-27T14:07:21.281Z,3.20
2023-02-27T14:09:52.901Z,4.35
2023-02-27T14:12:42.563Z,2.93
2023-02-27T14:15:52.589Z,3.55
2023-02-27T14:18:53.647Z,3.67
2023-02-27T14:21:58.847Z,3.17
2023-02-27T14:24:33.291Z,3.42
2023-02-27T14:27:03.094Z,2.67
2023-02-27T14:29:34.216Z,2.75
2023-02-27T14:32:06.917Z,4.45
2023-02-27T14:34:37.474Z,3.50
2023-02-27T14:37:12.589Z,4.32
2023-02-27T14:39:41.626Z,3.10
2023-02-27T14:42:24.743Z,3.88
2023-02-27T14:44:53.050Z,3.67
2023-02-27T14:47:25.715Z,3.50
2023-02-27T14:49:56.084Z,3.85
2023-02-27T14:52:29.477Z,2.67
2023-02-27T14:55:13.459Z,5.07
2023-02-27T14:57:41.449Z,4.18
2023-02-27T15:00:32.186Z,3.88
2023-02-27T15:03:00.769Z,3.45
2023-02-27T15:05:34.971Z,3.23
2023-02-27T15:08:04.831Z,3.22
2023-02-27T15:10:33.377Z,2.70
2023-02-27T15:13:02.803Z,3.05
2023-02-27T15:15:31.887Z,3.85
2023-02-27T15:18:01.020Z,2.63
2023-02-27T15:20:31.163Z,2.95
2023-02-27T15:22:59.911Z,3.17
2023-02-27T15:25:31.928Z,3.00
2023-02-27T15:28:04.479Z,2.80
2023-02-27T15:30:32.887Z,2.60
2023-02-27T15:33:02.860Z,3.13
2023-02-27T15:35:36.274Z,3.08
2023-02-27T15:38:05.389Z,3.38
2023-02-27T15:40:36.227Z,2.50
2023-02-27T15:43:04.774Z,3.13
2023-02-27T15:45:35.909Z,4.25
2023-02-27T15:48:04.188Z,2.67
2023-02-27T15:50:37.135Z,3.30
2023-02-27T15:53:10.175Z,2.75
2023-02-27T15:55:43.792Z,3.40
2023-02-27T15:58:20.763Z,2.90
2023-02-27T16:00:48.773Z,2.85
2023-02-27T16:03:21.694Z,4.10
2023-02-27T16:05:53.713Z,3.95
2023-02-27T16:08:22.253Z,4.00
2023-02-27T16:10:52.047Z,3.17
2023-02-27T16:13:32.473Z,3.42
2023-02-27T16:16:03.112Z,3.92
2023-02-27T16:18:35.531Z,2.95
2023-02-27T16:21:13.210Z,6.67
2023-02-27T16:23:41.447Z,3.53
2023-02-27T16:26:26.932Z,3.40
2023-02-27T16:28:57.357Z,5.38
2023-02-27T16:31:28.934Z,3.97
2023-02-27T16:33:59.585Z,4.07
2023-02-27T16:36:29.654Z,6.47
2023-02-27T16:38:58.228Z,5.25
2023-02-27T16:41:28.882Z,4.88
2023-02-27T16:43:56.736Z,5.78
2023-02-27T16:46:24.753Z,6.87
2023-02-27T16:48:54.338Z,7.35
2023-02-27T16:51:24.712Z,5.63
2023-02-27T16:53:53.708Z,7.95
2023-02-27T16:56:37.421Z,10.60
2023-02-27T16:59:07.253Z,7.37
2023-02-27T17:01:35.131Z,10.07
2023-02-27T17:04:05.188Z,8.88
2023-02-27T17:06:36.502Z,12.07
2023-02-27T17:09:04.743Z,10.93
2023-02-27T17:11:32.785Z,11.63
2023-02-27T17:14:01.072Z,7.47
2023-02-27T17:16:30.967Z,9.15
2023-02-27T17:18:58.919Z,6.20
2023-02-27T17:21:27.577Z,6.88
2023-02-27T17:23:55.587Z,7.23
2023-02-27T17:26:23.607Z,6.47
2023-02-27T17:28:51.441Z,6.70
2023-02-27T17:31:22.954Z,9.63
2023-02-27T17:33:53.454Z,9.85
2023-02-27T17:36:22.413Z,9.67
2023-02-27T17:38:54.529Z,12.02
2023-02-27T17:41:22.513Z,8.60
2023-02-27T17:43:52.303Z,9.68
2023-02-27T17:49:32.083Z,9.13
2023-02-27T17:52:00.624Z,8.15
2023-02-27T17:54:28.568Z,9.00
2023-02-27T17:56:56.370Z,12.07
2023-02-27T17:59:24.175Z,10.45
2023-02-27T18:01:53.457Z,12.00
2023-02-27T18:04:22.996Z,8.82
2023-02-27T18:06:52.399Z,9.75
2023-02-27T18:09:20.199Z,13.75
2023-02-27T18:11:48.059Z,8.95
2023-02-27T18:14:15.950Z,8.87
2023-02-27T18:16:45.149Z,7.63
2023-02-27T18:19:13.951Z,9.65
2023-02-27T18:21:42.417Z,9.25
2023-02-27T18:24:11.740Z,9.65
2023-02-27T18:26:40.734Z,9.33
2023-02-27T18:29:10.928Z,10.05
2023-02-27T18:31:40.945Z,9.48
2023-02-27T18:34:09.414Z,12.32
2023-02-27T18:36:38.122Z,10.00
2023-02-27T18:39:07.143Z,11.53
2023-02-27T18:41:36.840Z,11.35
2023-02-27T18:44:05.418Z,14.48
2023-02-27T18:46:33.552Z,11.75
2023-02-27T18:49:01.451Z,9.88
2023-02-27T18:51:29.283Z,10.77
2023-02-27T18:53:58.348Z,8.85
2023-02-27T18:56:27.560Z,8.35
2023-02-27T18:58:58.099Z,8.15
2023-02-27T19:01:28.493Z,8.98
2023-02-27T19:04:03.302Z,7.60
2023-02-27T19:06:32.746Z,7.50
2023-02-27T19:09:00.953Z,7.53
2023-02-27T19:11:33.070Z,6.75
2023-02-27T19:14:03.609Z,4.97
2023-02-27T19:16:32.223Z,6.90
2023-02-27T19:19:02.388Z,7.47
2023-02-27T19:21:30.303Z,6.72
2023-02-27T19:23:58.298Z,7.00
2023-02-27T19:26:26.427Z,8.27
2023-02-27T19:28:55.461Z,11.43
2023-02-27T19:31:25.819Z,11.00
2023-02-27T19:33:53.694Z,12.18
2023-02-27T19:36:23.128Z,10.57
2023-02-27T19:38:50.992Z,8.63
2023-02-27T19:41:18.972Z,6.70
2023-02-27T19:43:50.634Z,7.57
2023-02-27T19:46:20.834Z,6.32
2023-02-27T19:48:49.961Z,6.07
2023-02-27T19:51:18.753Z,6.35
2023-02-27T19:53:48.677Z,8.30
2023-02-27T19:56:18.421Z,6.90
2023-02-27T19:58:46.453Z,6.25
2023-02-27T20:01:14.670Z,6.75
2023-02-27T20:03:43.792Z,9.15
2023-02-27T20:06:18.910Z,6.57
2023-02-27T20:08:46.864Z,7.15
2023-02-27T20:11:17.130Z,10.52
2023-02-27T20:13:45.256Z,9.00
2023-02-27T20:16:15.898Z,7.70
2023-02-27T20:18:44.290Z,7.00
2023-02-27T20:21:14.694Z,6.28
2023-02-27T20:23:46.039Z,7.15
2023-02-27T20:26:16.317Z,7.65
2023-02-27T20:28:44.336Z,5.15
2023-02-27T20:31:13.693Z,5.47
2023-02-27T20:33:41.835Z,5.35
2023-02-27T20:36:11.663Z,7.32
2023-02-27T20:38:40.373Z,7.50
2023-02-27T20:41:11.153Z,5.82
2023-02-27T20:43:39.352Z,6.57
2023-02-27T20:46:09.907Z,6.28
2023-02-27T20:48:44.373Z,7.22
2023-02-27T20:51:14.186Z,6.80
2023-02-27T20:53:45.581Z,7.35
2023-02-27T20:56:16.181Z,7.90
2023-02-27T20:58:43.990Z,7.82
2023-02-27T21:01:13.570Z,7.93
2023-02-27T21:03:42.698Z,9.20
2023-02-27T21:06:12.655Z,5.32
2023-02-27T21:08:46.201Z,5.57
2023-02-27T21:11:18.050Z,7.00
2023-02-27T21:13:46.065Z,6.47
2023-02-27T21:16:15.833Z,6.20
2023-02-27T21:18:53.953Z,13.23
2023-02-27T21:21:23.881Z,7.73
2023-02-27T21:23:52.047Z,5.88
2023-02-27T21:26:23.705Z,5.80
2023-02-27T21:28:52.607Z,6.65
2023-02-27T21:31:22.908Z,6.93
2023-02-27T21:33:52.309Z,5.43
2023-02-27T21:36:26.512Z,5.25
2023-02-27T21:38:57.320Z,6.70
2023-02-27T21:41:29.053Z,6.93
2023-02-27T21:43:59.424Z,7.25
2023-02-27T21:46:27.311Z,6.77
2023-02-27T21:48:55.741Z,6.75
2023-02-27T21:51:38.934Z,4.88
2023-02-27T21:54:09.140Z,5.05
2023-02-27T21:56:38.669Z,7.13
2023-02-27T21:59:06.492Z,5.40
2023-02-27T22:01:34.691Z,5.97
2023-02-27T22:04:02.890Z,5.57
2023-02-27T22:06:32.560Z,5.10
2023-02-27T22:09:02.635Z,5.95
2023-02-27T22:11:30.738Z,6.13
2023-02-27T22:14:00.133Z,4.32
2023-02-27T22:16:28.795Z,5.90
2023-02-27T22:18:56.617Z,5.07
2023-02-27T22:21:27.003Z,7.32
2023-02-27T22:23:56.201Z,5.20
2023-02-27T22:26:28.066Z,5.10
2023-02-27T22:28:57.268Z,6.63
2023-02-27T22:31:28.850Z,5.50
2023-02-27T22:34:00.161Z,7.03
2023-02-27T22:36:30.235Z,5.77
2023-02-27T22:38:58.596Z,8.43
2023-02-27T22:41:29.342Z,5.22
2023-02-27T22:43:58.549Z,7.78
2023-02-27T22:46:30.112Z,5.15
2023-02-27T22:48:59.075Z,5.53
2023-02-27T22:51:28.523Z,4.07
2023-02-27T22:53:57.894Z,5.53
2023-02-27T22:56:26.653Z,6.22
2023-02-27T22:58:54.797Z,6.07
2023-02-27T23:01:24.342Z,5.50
2023-02-27T23:03:54.983Z,6.05
2023-02-27T23:06:25.024Z,5.53
2023-02-27T23:08:52.844Z,6.15
2023-02-27T23:11:21.281Z,5.88
2023-02-27T23:13:49.860Z,6.10
2023-02-27T23:16:17.968Z,7.53
2023-02-27T23:18:47.786Z,4.40
2023-02-27T23:21:17.992Z,5.22
2023-02-27T23:23:46.252Z,5.68
2023-02-27T23:26:14.480Z,6.27
2023-02-27T23:28:42.780Z,5.10
2023-02-27T23:31:10.915Z,5.13
2023-02-27T23:33:38.771Z,6.13
2023-02-27T23:36:07.223Z,5.85
2023-02-27T23:38:36.470Z,4.97
2023-02-27T23:41:08.251Z,4.68
2023-02-27T23:43:36.594Z,4.68
2023-02-27T23:46:08.220Z,5.50
2023-02-27T23:48:36.489Z,6.50
2023-02-27T23:51:05.724Z,6.53
2023-02-27T23:53:34.680Z,6.82
2023-02-27T23:56:13.230Z,5.00
2023-02-27T23:58:41.082Z,4.47
